sensor_id;sensor_type;location;lat;lon;timestamp;P1;durP1;ratioP1;P2;durP2;ratioP2
2299;SDS011;1158;48.750;9.078;2023-05-10T00:00:28;3.33;;;1.80;;
2299;SDS011;1158;48.750;9.078;2023-05-10T00:02:54;3.60;;;1.90;;
2299;SDS011;1158;48.750;9.078;2023-05-10T00:05:21;4.00;;;1.77;;
2299;SDS011;1158;48.750;9.078;2023-05-10T00:07:48;2.73;;;1.73;;
2299;SDS011;1158;48.750;9.078;2023-05-10T00:10:14;2.43;;;1.50;;
2299;SDS011;1158;48.750;9.078;2023-05-10T00:12:42;3.27;;;1.27;;
2299;SDS011;1158;48.750;9.078;2023-05-10T00:15:09;3.13;;;1.67;;
2299;SDS011;1158;48.750;9.078;2023-05-10T00:17:36;4.10;;;1.70;;
2299;SDS011;1158;48.750;9.078;2023-05-10T00:20:03;3.03;;;1.30;;
2299;SDS011;1158;48.750;9.078;2023-05-10T00:22:31;2.80;;;1.53;;
2299;SDS011;1158;48.750;9.078;2023-05-10T00:24:57;5.00;;;1.67;;
2299;SDS011;1158;48.750;9.078;2023-05-10T00:27:24;3.00;;;1.13;;
2299;SDS011;1158;48.750;9.078;2023-05-10T00:29:52;2.10;;;1.37;;
2299;SDS011;1158;48.750;9.078;2023-05-10T00:32:19;1.37;;;0.77;;
2299;SDS011;1158;48.750;9.078;2023-05-10T00:34:46;1.90;;;1.00;;
2299;SDS011;1158;48.750;9.078;2023-05-10T00:37:13;1.90;;;0.90;;
2299;SDS011;1158;48.750;9.078;2023-05-10T00:39:39;3.53;;;0.93;;
2299;SDS011;1158;48.750;9.078;2023-05-10T00:42:06;7.17;;;1.10;;
2299;SDS011;1158;48.750;9.078;2023-05-10T00:44:33;1.90;;;0.90;;
2299;SDS011;1158;48.750;9.078;2023-05-10T00:47:01;1.77;;;0.80;;
2299;SDS011;1158;48.750;9.078;2023-05-10T00:49:28;1.70;;;0.97;;
2299;SDS011;1158;48.750;9.078;2023-05-10T00:51:55;1.80;;;0.90;;
2299;SDS011;1158;48.750;9.078;2023-05-10T00:54:22;1.40;;;0.73;;
2299;SDS011;1158;48.750;9.078;2023-05-10T00:56:48;3.93;;;0.93;;
2299;SDS011;1158;48.750;9.078;2023-05-10T00:59:15;10.57;;;0.97;;
2299;SDS011;1158;48.750;9.078;2023-05-10T01:01:42;2.70;;;0.73;;
2299;SDS011;1158;48.750;9.078;2023-05-10T01:04:11;2.17;;;0.90;;
2299;SDS011;1158;48.750;9.078;2023-05-10T01:06:38;6.60;;;0.80;;
2299;SDS011;1158;48.750;9.078;2023-05-10T01:09:05;1.70;;;0.80;;
2299;SDS011;1158;48.750;9.078;2023-05-10T01:11:32;1.43;;;0.70;;
2299;SDS011;1158;48.750;9.078;2023-05-10T01:14:00;4.30;;;0.80;;
2299;SDS011;1158;48.750;9.078;2023-05-10T01:16:27;6.50;;;1.07;;
2299;SDS011;1158;48.750;9.078;2023-05-10T01:18:58;2.80;;;0.90;;
2299;SDS011;1158;48.750;9.078;2023-05-10T01:21:29;2.93;;;0.90;;
2299;SDS011;1158;48.750;9.078;2023-05-10T01:27:18;3.50;;;0.70;;
2299;SDS011;1158;48.750;9.078;2023-05-10T01:30:05;1.50;;;0.83;;
2299;SDS011;1158;48.750;9.078;2023-05-10T01:33:00;4.50;;;0.90;;
2299;SDS011;1158;48.750;9.078;2023-05-10T01:35:35;1.63;;;0.93;;
2299;SDS011;1158;48.750;9.078;2023-05-10T01:38:07;1.83;;;0.93;;
2299;SDS011;1158;48.750;9.078;2023-05-10T01:40:46;1.60;;;0.90;;
2299;SDS011;1158;48.750;9.078;2023-05-10T01:43:22;1.50;;;0.87;;
2299;SDS011;1158;48.750;9.078;2023-05-10T01:45:54;1.57;;;0.90;;
2299;SDS011;1158;48.750;9.078;2023-05-10T01:48:30;2.43;;;0.80;;
2299;SDS011;1158;48.750;9.078;2023-05-10T01:50:59;1.50;;;0.83;;
2299;SDS011;1158;48.750;9.078;2023-05-10T01:53:26;1.60;;;1.00;;
2299;SDS011;1158;48.750;9.078;2023-05-10T01:55:54;6.70;;;0.90;;
2299;SDS011;1158;48.750;9.078;2023-05-10T01:58:22;1.70;;;0.90;;
2299;SDS011;1158;48.750;9.078;2023-05-10T02:00:53;2.37;;;0.90;;
2299;SDS011;1158;48.750;9.078;2023-05-10T02:03:21;1.73;;;0.90;;
2299;SDS011;1158;48.750;9.078;2023-05-10T02:05:51;2.00;;;0.80;;
2299;SDS011;1158;48.750;9.078;2023-05-10T02:08:19;1.60;;;0.90;;
2299;SDS011;1158;48.750;9.078;2023-05-10T02:10:49;2.70;;;1.00;;
2299;SDS011;1158;48.750;9.078;2023-05-10T02:13:18;1.67;;;0.90;;
2299;SDS011;1158;48.750;9.078;2023-05-10T02:15:46;2.93;;;0.90;;
2299;SDS011;1158;48.750;9.078;2023-05-10T02:18:14;1.60;;;0.90;;
2299;SDS011;1158;48.750;9.078;2023-05-10T02:20:43;3.07;;;1.10;;
2299;SDS011;1158;48.750;9.078;2023-05-10T02:23:12;1.97;;;1.00;;
2299;SDS011;1158;48.750;9.078;2023-05-10T02:25:40;6.13;;;1.30;;
2299;SDS011;1158;48.750;9.078;2023-05-10T02:28:09;5.63;;;1.50;;
2299;SDS011;1158;48.750;9.078;2023-05-10T02:30:37;2.33;;;1.13;;
2299;SDS011;1158;48.750;9.078;2023-05-10T02:33:04;3.33;;;1.00;;
2299;SDS011;1158;48.750;9.078;2023-05-10T02:35:32;1.60;;;0.90;;
2299;SDS011;1158;48.750;9.078;2023-05-10T02:37:59;2.00;;;1.23;;
2299;SDS011;1158;48.750;9.078;2023-05-10T02:40:28;3.90;;;1.03;;
2299;SDS011;1158;48.750;9.078;2023-05-10T02:42:56;2.00;;;1.17;;
2299;SDS011;1158;48.750;9.078;2023-05-10T02:45:26;2.17;;;1.47;;
2299;SDS011;1158;48.750;9.078;2023-05-10T02:47:56;1.87;;;1.17;;
2299;SDS011;1158;48.750;9.078;2023-05-10T02:50:22;2.00;;;1.37;;
2299;SDS011;1158;48.750;9.078;2023-05-10T02:52:54;3.80;;;1.60;;
2299;SDS011;1158;48.750;9.078;2023-05-10T02:55:31;2.63;;;1.10;;
2299;SDS011;1158;48.750;9.078;2023-05-10T02:58:01;3.10;;;1.30;;
2299;SDS011;1158;48.750;9.078;2023-05-10T03:00:29;1.70;;;0.97;;
2299;SDS011;1158;48.750;9.078;2023-05-10T03:02:55;2.93;;;1.73;;
2299;SDS011;1158;48.750;9.078;2023-05-10T03:05:22;2.10;;;1.30;;
2299;SDS011;1158;48.750;9.078;2023-05-10T03:07:49;3.70;;;1.50;;
2299;SDS011;1158;48.750;9.078;2023-05-10T03:10:16;2.87;;;1.40;;
2299;SDS011;1158;48.750;9.078;2023-05-10T03:12:52;2.50;;;1.50;;
2299;SDS011;1158;48.750;9.078;2023-05-10T03:15:42;2.37;;;1.67;;
2299;SDS011;1158;48.750;9.078;2023-05-10T03:18:20;4.33;;;1.90;;
2299;SDS011;1158;48.750;9.078;2023-05-10T03:20:49;6.67;;;1.97;;
2299;SDS011;1158;48.750;9.078;2023-05-10T03:23:22;2.40;;;1.70;;
2299;SDS011;1158;48.750;9.078;2023-05-10T03:25:53;4.40;;;2.20;;
2299;SDS011;1158;48.750;9.078;2023-05-10T03:28:22;6.63;;;1.80;;
2299;SDS011;1158;48.750;9.078;2023-05-10T03:30:51;3.00;;;2.10;;
2299;SDS011;1158;48.750;9.078;2023-05-10T03:33:19;5.43;;;2.20;;
2299;SDS011;1158;48.750;9.078;2023-05-10T03:35:46;3.90;;;2.00;;
2299;SDS011;1158;48.750;9.078;2023-05-10T03:38:12;4.10;;;2.00;;
2299;SDS011;1158;48.750;9.078;2023-05-10T03:40:39;6.33;;;2.03;;
2299;SDS011;1158;48.750;9.078;2023-05-10T03:43:06;2.87;;;2.00;;
2299;SDS011;1158;48.750;9.078;2023-05-10T03:45:34;2.70;;;2.00;;
2299;SDS011;1158;48.750;9.078;2023-05-10T03:48:01;3.43;;;2.37;;
2299;SDS011;1158;48.750;9.078;2023-05-10T03:50:28;4.67;;;2.50;;
2299;SDS011;1158;48.750;9.078;2023-05-10T03:52:54;2.97;;;2.23;;
2299;SDS011;1158;48.750;9.078;2023-05-10T03:55:22;4.40;;;2.50;;
2299;SDS011;1158;48.750;9.078;2023-05-10T03:57:48;3.10;;;2.37;;
2299;SDS011;1158;48.750;9.078;2023-05-10T04:00:15;5.40;;;2.53;;
2299;SDS011;1158;48.750;9.078;2023-05-10T04:02:43;5.67;;;3.00;;
2299;SDS011;1158;48.750;9.078;2023-05-10T04:05:10;4.17;;;3.07;;
2299;SDS011;1158;48.750;9.078;2023-05-10T04:07:37;3.33;;;2.47;;
2299;SDS011;1158;48.750;9.078;2023-05-10T04:10:04;5.17;;;2.90;;
2299;SDS011;1158;48.750;9.078;2023-05-10T04:12:31;6.60;;;2.43;;
2299;SDS011;1158;48.750;9.078;2023-05-10T04:14:58;3.50;;;2.47;;
2299;SDS011;1158;48.750;9.078;2023-05-10T04:17:25;4.73;;;2.60;;
2299;SDS011;1158;48.750;9.078;2023-05-10T04:19:53;7.03;;;2.90;;
2299;SDS011;1158;48.750;9.078;2023-05-10T04:22:20;6.70;;;2.93;;
2299;SDS011;1158;48.750;9.078;2023-05-10T04:24:47;3.90;;;2.73;;
2299;SDS011;1158;48.750;9.078;2023-05-10T04:27:13;3.50;;;2.40;;
2299;SDS011;1158;48.750;9.078;2023-05-10T04:29:40;5.80;;;2.50;;
2299;SDS011;1158;48.750;9.078;2023-05-10T04:32:07;4.30;;;3.13;;
2299;SDS011;1158;48.750;9.078;2023-05-10T04:34:35;3.77;;;2.67;;
2299;SDS011;1158;48.750;9.078;2023-05-10T04:37:03;4.60;;;3.10;;
2299;SDS011;1158;48.750;9.078;2023-05-10T04:39:30;4.07;;;2.50;;
2299;SDS011;1158;48.750;9.078;2023-05-10T04:41:57;4.40;;;2.60;;
2299;SDS011;1158;48.750;9.078;2023-05-10T04:44:23;3.83;;;2.17;;
2299;SDS011;1158;48.750;9.078;2023-05-10T04:46:50;3.03;;;2.13;;
2299;SDS011;1158;48.750;9.078;2023-05-10T04:49:17;6.50;;;2.17;;
2299;SDS011;1158;48.750;9.078;2023-05-10T04:51:44;5.27;;;2.97;;
2299;SDS011;1158;48.750;9.078;2023-05-10T04:54:12;3.90;;;2.67;;
2299;SDS011;1158;48.750;9.078;2023-05-10T04:56:38;5.30;;;2.47;;
2299;SDS011;1158;48.750;9.078;2023-05-10T04:59:05;4.27;;;2.57;;
2299;SDS011;1158;48.750;9.078;2023-05-10T05:01:32;5.00;;;2.57;;
2299;SDS011;1158;48.750;9.078;2023-05-10T05:03:59;2.90;;;2.20;;
2299;SDS011;1158;48.750;9.078;2023-05-10T05:06:26;5.90;;;2.90;;
2299;SDS011;1158;48.750;9.078;2023-05-10T05:08:53;4.63;;;3.00;;
2299;SDS011;1158;48.750;9.078;2023-05-10T05:11:21;5.83;;;3.30;;
2299;SDS011;1158;48.750;9.078;2023-05-10T05:13:48;4.43;;;2.60;;
2299;SDS011;1158;48.750;9.078;2023-05-10T05:16:14;4.17;;;2.43;;
2299;SDS011;1158;48.750;9.078;2023-05-10T05:18:41;4.83;;;2.70;;
2299;SDS011;1158;48.750;9.078;2023-05-10T05:21:17;4.33;;;2.50;;
2299;SDS011;1158;48.750;9.078;2023-05-10T05:23:45;3.67;;;2.33;;
2299;SDS011;1158;48.750;9.078;2023-05-10T05:26:11;5.73;;;2.60;;
2299;SDS011;1158;48.750;9.078;2023-05-10T05:28:39;5.20;;;2.50;;
2299;SDS011;1158;48.750;9.078;2023-05-10T05:31:06;3.33;;;2.30;;
2299;SDS011;1158;48.750;9.078;2023-05-10T05:33:34;6.23;;;2.43;;
2299;SDS011;1158;48.750;9.078;2023-05-10T05:36:01;3.50;;;2.17;;
2299;SDS011;1158;48.750;9.078;2023-05-10T05:38:28;4.50;;;2.60;;
2299;SDS011;1158;48.750;9.078;2023-05-10T05:40:54;5.87;;;3.00;;
2299;SDS011;1158;48.750;9.078;2023-05-10T05:43:21;3.20;;;2.57;;
2299;SDS011;1158;48.750;9.078;2023-05-10T05:45:49;6.70;;;2.60;;
2299;SDS011;1158;48.750;9.078;2023-05-10T05:48:18;3.00;;;2.03;;
2299;SDS011;1158;48.750;9.078;2023-05-10T05:50:45;5.33;;;2.43;;
2299;SDS011;1158;48.750;9.078;2023-05-10T05:53:15;3.60;;;2.80;;
2299;SDS011;1158;48.750;9.078;2023-05-10T05:55:50;3.30;;;2.67;;
2299;SDS011;1158;48.750;9.078;2023-05-10T05:58:17;4.83;;;2.33;;
2299;SDS011;1158;48.750;9.078;2023-05-10T06:00:44;4.13;;;2.70;;
2299;SDS011;1158;48.750;9.078;2023-05-10T06:03:12;4.80;;;2.53;;
2299;SDS011;1158;48.750;9.078;2023-05-10T06:05:38;4.70;;;2.53;;
2299;SDS011;1158;48.750;9.078;2023-05-10T06:08:05;3.87;;;2.23;;
2299;SDS011;1158;48.750;9.078;2023-05-10T06:10:32;4.00;;;2.67;;
2299;SDS011;1158;48.750;9.078;2023-05-10T06:12:58;5.83;;;2.60;;
2299;SDS011;1158;48.750;9.078;2023-05-10T06:15:25;5.50;;;2.47;;
2299;SDS011;1158;48.750;9.078;2023-05-10T06:17:52;5.00;;;2.23;;
2299;SDS011;1158;48.750;9.078;2023-05-10T06:20:20;3.17;;;2.30;;
2299;SDS011;1158;48.750;9.078;2023-05-10T06:22:47;4.40;;;2.67;;
2299;SDS011;1158;48.750;9.078;2023-05-10T06:25:14;3.80;;;2.80;;
2299;SDS011;1158;48.750;9.078;2023-05-10T06:27:42;3.57;;;2.30;;
2299;SDS011;1158;48.750;9.078;2023-05-10T06:30:09;4.20;;;3.30;;
2299;SDS011;1158;48.750;9.078;2023-05-10T06:32:38;7.40;;;3.23;;
2299;SDS011;1158;48.750;9.078;2023-05-10T06:35:05;4.50;;;3.20;;
2299;SDS011;1158;48.750;9.078;2023-05-10T06:37:34;5.20;;;3.70;;
2299;SDS011;1158;48.750;9.078;2023-05-10T06:40:00;5.00;;;2.90;;
2299;SDS011;1158;48.750;9.078;2023-05-10T06:42:28;6.17;;;2.87;;
2299;SDS011;1158;48.750;9.078;2023-05-10T06:44:55;4.77;;;3.07;;
2299;SDS011;1158;48.750;9.078;2023-05-10T06:47:21;7.53;;;3.10;;
2299;SDS011;1158;48.750;9.078;2023-05-10T06:49:48;6.50;;;3.00;;
2299;SDS011;1158;48.750;9.078;2023-05-10T06:52:15;5.63;;;2.77;;
2299;SDS011;1158;48.750;9.078;2023-05-10T06:54:43;4.80;;;2.50;;
2299;SDS011;1158;48.750;9.078;2023-05-10T06:57:09;5.10;;;2.73;;
2299;SDS011;1158;48.750;9.078;2023-05-10T06:59:36;5.27;;;2.37;;
2299;SDS011;1158;48.750;9.078;2023-05-10T07:02:03;4.33;;;2.27;;
2299;SDS011;1158;48.750;9.078;2023-05-10T07:04:29;6.93;;;2.70;;
2299;SDS011;1158;48.750;9.078;2023-05-10T07:06:56;3.30;;;2.00;;
2299;SDS011;1158;48.750;9.078;2023-05-10T07:09:23;3.97;;;1.90;;
2299;SDS011;1158;48.750;9.078;2023-05-10T07:11:51;2.63;;;2.17;;
2299;SDS011;1158;48.750;9.078;2023-05-10T07:14:18;3.37;;;2.50;;
2299;SDS011;1158;48.750;9.078;2023-05-10T07:16:45;3.60;;;2.27;;
2299;SDS011;1158;48.750;9.078;2023-05-10T07:19:12;3.00;;;2.40;;
2299;SDS011;1158;48.750;9.078;2023-05-10T07:21:39;6.70;;;2.23;;
2299;SDS011;1158;48.750;9.078;2023-05-10T07:24:08;3.60;;;2.07;;
2299;SDS011;1158;48.750;9.078;2023-05-10T07:26:34;3.90;;;2.13;;
2299;SDS011;1158;48.750;9.078;2023-05-10T07:29:02;5.17;;;1.93;;
2299;SDS011;1158;48.750;9.078;2023-05-10T07:31:29;2.57;;;1.53;;
2299;SDS011;1158;48.750;9.078;2023-05-10T07:33:56;4.30;;;1.70;;
2299;SDS011;1158;48.750;9.078;2023-05-10T07:36:22;4.73;;;2.00;;
2299;SDS011;1158;48.750;9.078;2023-05-10T07:38:49;3.30;;;1.83;;
2299;SDS011;1158;48.750;9.078;2023-05-10T07:41:16;3.13;;;1.50;;
2299;SDS011;1158;48.750;9.078;2023-05-10T07:43:42;9.13;;;2.00;;
2299;SDS011;1158;48.750;9.078;2023-05-10T07:46:10;4.17;;;1.60;;
2299;SDS011;1158;48.750;9.078;2023-05-10T07:51:25;10.13;;;2.03;;
2299;SDS011;1158;48.750;9.078;2023-05-10T07:53:52;2.87;;;1.70;;
2299;SDS011;1158;48.750;9.078;2023-05-10T07:56:20;2.10;;;1.30;;
2299;SDS011;1158;48.750;9.078;2023-05-10T07:58:48;1.80;;;1.23;;
2299;SDS011;1158;48.750;9.078;2023-05-10T08:01:16;2.37;;;1.20;;
2299;SDS011;1158;48.750;9.078;2023-05-10T08:03:43;2.00;;;1.20;;
2299;SDS011;1158;48.750;9.078;2023-05-10T08:06:10;2.50;;;1.40;;
2299;SDS011;1158;48.750;9.078;2023-05-10T08:08:37;3.40;;;1.40;;
2299;SDS011;1158;48.750;9.078;2023-05-10T08:11:04;3.73;;;1.17;;
2299;SDS011;1158;48.750;9.078;2023-05-10T08:13:31;2.37;;;1.33;;
2299;SDS011;1158;48.750;9.078;2023-05-10T08:15:57;4.70;;;1.17;;
2299;SDS011;1158;48.750;9.078;2023-05-10T08:18:25;2.27;;;1.20;;
2299;SDS011;1158;48.750;9.078;2023-05-10T08:20:52;2.90;;;1.60;;
2299;SDS011;1158;48.750;9.078;2023-05-10T08:23:19;2.30;;;1.43;;
2299;SDS011;1158;48.750;9.078;2023-05-10T08:25:45;4.00;;;1.33;;
2299;SDS011;1158;48.750;9.078;2023-05-10T08:28:12;1.90;;;1.30;;
2299;SDS011;1158;48.750;9.078;2023-05-10T08:30:39;4.03;;;1.30;;
2299;SDS011;1158;48.750;9.078;2023-05-10T08:33:05;1.67;;;1.00;;
2299;SDS011;1158;48.750;9.078;2023-05-10T08:35:33;3.00;;;1.57;;
2299;SDS011;1158;48.750;9.078;2023-05-10T08:38:00;1.70;;;0.80;;
2299;SDS011;1158;48.750;9.078;2023-05-10T08:40:27;3.73;;;1.00;;
2299;SDS011;1158;48.750;9.078;2023-05-10T08:42:55;3.53;;;1.00;;
2299;SDS011;1158;48.750;9.078;2023-05-10T08:45:31;5.30;;;1.20;;
2299;SDS011;1158;48.750;9.078;2023-05-10T08:47:59;3.60;;;1.10;;
2299;SDS011;1158;48.750;9.078;2023-05-10T08:50:27;2.70;;;1.10;;
2299;SDS011;1158;48.750;9.078;2023-05-10T08:52:57;1.87;;;0.80;;
2299;SDS011;1158;48.750;9.078;2023-05-10T08:55:27;3.00;;;1.13;;
2299;SDS011;1158;48.750;9.078;2023-05-10T08:57:55;2.10;;;1.10;;
2299;SDS011;1158;48.750;9.078;2023-05-10T09:00:22;2.77;;;0.90;;
2299;SDS011;1158;48.750;9.078;2023-05-10T09:02:49;2.30;;;1.10;;
2299;SDS011;1158;48.750;9.078;2023-05-10T09:05:16;2.80;;;1.20;;
2299;SDS011;1158;48.750;9.078;2023-05-10T09:07:43;5.20;;;1.10;;
2299;SDS011;1158;48.750;9.078;2023-05-10T09:10:11;2.80;;;0.90;;
2299;SDS011;1158;48.750;9.078;2023-05-10T09:12:40;2.57;;;0.90;;
2299;SDS011;1158;48.750;9.078;2023-05-10T09:15:09;4.77;;;0.80;;
2299;SDS011;1158;48.750;9.078;2023-05-10T09:17:36;2.20;;;1.10;;
2299;SDS011;1158;48.750;9.078;2023-05-10T09:20:05;3.50;;;1.07;;
2299;SDS011;1158;48.750;9.078;2023-05-10T09:22:33;2.67;;;0.97;;
2299;SDS011;1158;48.750;9.078;2023-05-10T09:25:03;2.00;;;1.03;;
2299;SDS011;1158;48.750;9.078;2023-05-10T09:27:34;2.17;;;0.93;;
2299;SDS011;1158;48.750;9.078;2023-05-10T09:30:02;1.50;;;0.87;;
2299;SDS011;1158;48.750;9.078;2023-05-10T09:32:38;3.23;;;1.10;;
2299;SDS011;1158;48.750;9.078;2023-05-10T09:35:09;1.90;;;0.90;;
2299;SDS011;1158;48.750;9.078;2023-05-10T09:37:38;1.90;;;0.90;;
2299;SDS011;1158;48.750;9.078;2023-05-10T09:40:06;1.40;;;0.70;;
2299;SDS011;1158;48.750;9.078;2023-05-10T09:42:35;2.30;;;0.73;;
2299;SDS011;1158;48.750;9.078;2023-05-10T09:45:02;1.70;;;1.00;;
2299;SDS011;1158;48.750;9.078;2023-05-10T09:47:31;2.07;;;0.90;;
2299;SDS011;1158;48.750;9.078;2023-05-10T09:49:59;1.73;;;0.90;;
2299;SDS011;1158;48.750;9.078;2023-05-10T09:52:28;1.60;;;0.87;;
2299;SDS011;1158;48.750;9.078;2023-05-10T09:54:55;2.20;;;0.80;;
2299;SDS011;1158;48.750;9.078;2023-05-10T09:57:23;2.23;;;0.93;;
2299;SDS011;1158;48.750;9.078;2023-05-10T09:59:52;2.60;;;0.90;;
2299;SDS011;1158;48.750;9.078;2023-05-10T10:02:20;5.43;;;1.00;;
2299;SDS011;1158;48.750;9.078;2023-05-10T10:04:48;1.57;;;0.80;;
2299;SDS011;1158;48.750;9.078;2023-05-10T10:07:17;3.83;;;0.87;;
2299;SDS011;1158;48.750;9.078;2023-05-10T10:09:49;3.40;;;0.90;;
2299;SDS011;1158;48.750;9.078;2023-05-10T10:12:16;2.53;;;0.90;;
2299;SDS011;1158;48.750;9.078;2023-05-10T10:14:44;4.33;;;1.00;;
2299;SDS011;1158;48.750;9.078;2023-05-10T10:17:13;9.77;;;0.80;;
2299;SDS011;1158;48.750;9.078;2023-05-10T10:19:41;2.70;;;1.00;;
2299;SDS011;1158;48.750;9.078;2023-05-10T10:22:07;2.73;;;0.80;;
2299;SDS011;1158;48.750;9.078;2023-05-10T10:24:36;1.70;;;0.90;;
2299;SDS011;1158;48.750;9.078;2023-05-10T10:27:07;2.50;;;1.30;;
2299;SDS011;1158;48.750;9.078;2023-05-10T10:29:43;3.70;;;1.30;;
2299;SDS011;1158;48.750;9.078;2023-05-10T10:32:21;4.23;;;0.97;;
2299;SDS011;1158;48.750;9.078;2023-05-10T10:34:54;2.60;;;0.90;;
2299;SDS011;1158;48.750;9.078;2023-05-10T10:37:42;2.83;;;1.00;;
2299;SDS011;1158;48.750;9.078;2023-05-10T10:40:22;2.70;;;0.93;;
2299;SDS011;1158;48.750;9.078;2023-05-10T10:42:50;1.60;;;0.90;;
2299;SDS011;1158;48.750;9.078;2023-05-10T10:45:18;5.60;;;1.03;;
2299;SDS011;1158;48.750;9.078;2023-05-10T10:47:47;4.47;;;1.03;;
2299;SDS011;1158;48.750;9.078;2023-05-10T10:50:14;1.50;;;0.80;;
2299;SDS011;1158;48.750;9.078;2023-05-10T10:52:42;4.10;;;0.97;;
2299;SDS011;1158;48.750;9.078;2023-05-10T10:55:10;4.40;;;1.00;;
2299;SDS011;1158;48.750;9.078;2023-05-10T10:57:45;2.43;;;0.90;;
2299;SDS011;1158;48.750;9.078;2023-05-10T11:00:21;5.10;;;1.00;;
2299;SDS011;1158;48.750;9.078;2023-05-10T11:02:51;3.03;;;1.10;;
2299;SDS011;1158;48.750;9.078;2023-05-10T11:08:11;1.60;;;0.90;;
2299;SDS011;1158;48.750;9.078;2023-05-10T11:10:40;2.63;;;0.97;;
2299;SDS011;1158;48.750;9.078;2023-05-10T11:13:16;1.40;;;0.70;;
2299;SDS011;1158;48.750;9.078;2023-05-10T11:15:54;3.07;;;0.90;;
2299;SDS011;1158;48.750;9.078;2023-05-10T11:18:24;10.60;;;1.07;;
2299;SDS011;1158;48.750;9.078;2023-05-10T11:20:52;1.60;;;0.80;;
2299;SDS011;1158;48.750;9.078;2023-05-10T11:23:22;2.80;;;1.33;;
2299;SDS011;1158;48.750;9.078;2023-05-10T11:25:49;1.83;;;1.10;;
2299;SDS011;1158;48.750;9.078;2023-05-10T11:28:17;3.00;;;1.20;;
2299;SDS011;1158;48.750;9.078;2023-05-10T11:30:44;1.93;;;0.90;;
2299;SDS011;1158;48.750;9.078;2023-05-10T11:33:14;3.50;;;1.47;;
2299;SDS011;1158;48.750;9.078;2023-05-10T11:35:43;2.00;;;1.17;;
2299;SDS011;1158;48.750;9.078;2023-05-10T11:38:10;6.77;;;1.40;;
2299;SDS011;1158;48.750;9.078;2023-05-10T11:40:38;1.50;;;1.00;;
2299;SDS011;1158;48.750;9.078;2023-05-10T11:43:05;3.70;;;1.40;;
2299;SDS011;1158;48.750;9.078;2023-05-10T11:45:32;2.07;;;1.07;;
2299;SDS011;1158;48.750;9.078;2023-05-10T11:47:59;5.40;;;1.30;;
2299;SDS011;1158;48.750;9.078;2023-05-10T11:50:27;1.60;;;0.90;;
2299;SDS011;1158;48.750;9.078;2023-05-10T11:52:55;4.60;;;1.27;;
2299;SDS011;1158;48.750;9.078;2023-05-10T11:55:23;2.83;;;1.13;;
2299;SDS011;1158;48.750;9.078;2023-05-10T11:57:51;6.30;;;1.10;;
2299;SDS011;1158;48.750;9.078;2023-05-10T12:00:18;2.83;;;1.20;;
2299;SDS011;1158;48.750;9.078;2023-05-10T12:02:45;3.57;;;1.63;;
2299;SDS011;1158;48.750;9.078;2023-05-10T12:05:12;2.97;;;1.40;;
2299;SDS011;1158;48.750;9.078;2023-05-10T12:07:39;5.57;;;1.20;;
2299;SDS011;1158;48.750;9.078;2023-05-10T12:10:08;2.10;;;1.20;;
2299;SDS011;1158;48.750;9.078;2023-05-10T12:12:37;3.20;;;1.20;;
2299;SDS011;1158;48.750;9.078;2023-05-10T12:15:07;2.37;;;1.30;;
2299;SDS011;1158;48.750;9.078;2023-05-10T12:17:37;2.10;;;1.20;;
2299;SDS011;1158;48.750;9.078;2023-05-10T12:20:14;2.20;;;1.13;;
2299;SDS011;1158;48.750;9.078;2023-05-10T12:22:46;3.23;;;1.20;;
2299;SDS011;1158;48.750;9.078;2023-05-10T12:25:14;6.13;;;1.40;;
2299;SDS011;1158;48.750;9.078;2023-05-10T12:27:47;3.33;;;1.30;;
2299;SDS011;1158;48.750;9.078;2023-05-10T12:30:18;2.00;;;1.00;;
2299;SDS011;1158;48.750;9.078;2023-05-10T12:32:45;4.10;;;1.33;;
2299;SDS011;1158;48.750;9.078;2023-05-10T12:35:12;5.50;;;1.30;;
2299;SDS011;1158;48.750;9.078;2023-05-10T12:37:39;3.83;;;1.60;;
2299;SDS011;1158;48.750;9.078;2023-05-10T12:40:06;2.30;;;1.10;;
2299;SDS011;1158;48.750;9.078;2023-05-10T12:42:35;2.87;;;1.30;;
2299;SDS011;1158;48.750;9.078;2023-05-10T12:45:02;3.43;;;1.20;;
2299;SDS011;1158;48.750;9.078;2023-05-10T12:47:30;3.80;;;1.20;;
2299;SDS011;1158;48.750;9.078;2023-05-10T12:49:57;2.50;;;1.30;;
2299;SDS011;1158;48.750;9.078;2023-05-10T12:52:25;6.60;;;1.57;;
2299;SDS011;1158;48.750;9.078;2023-05-10T12:54:52;2.10;;;1.00;;
2299;SDS011;1158;48.750;9.078;2023-05-10T12:57:18;4.03;;;1.43;;
2299;SDS011;1158;48.750;9.078;2023-05-10T12:59:47;9.03;;;1.17;;
2299;SDS011;1158;48.750;9.078;2023-05-10T13:02:13;3.57;;;1.50;;
2299;SDS011;1158;48.750;9.078;2023-05-10T13:04:42;4.47;;;1.60;;
2299;SDS011;1158;48.750;9.078;2023-05-10T13:07:09;6.27;;;1.50;;
2299;SDS011;1158;48.750;9.078;2023-05-10T13:09:36;3.40;;;1.20;;
2299;SDS011;1158;48.750;9.078;2023-05-10T13:12:03;3.50;;;1.40;;
2299;SDS011;1158;48.750;9.078;2023-05-10T13:14:29;3.00;;;1.37;;
2299;SDS011;1158;48.750;9.078;2023-05-10T13:16:58;2.20;;;1.30;;
2299;SDS011;1158;48.750;9.078;2023-05-10T13:19:25;3.40;;;1.30;;
2299;SDS011;1158;48.750;9.078;2023-05-10T13:21:52;4.53;;;1.57;;
2299;SDS011;1158;48.750;9.078;2023-05-10T13:24:18;2.70;;;1.20;;
2299;SDS011;1158;48.750;9.078;2023-05-10T13:26:45;2.20;;;1.40;;
2299;SDS011;1158;48.750;9.078;2023-05-10T13:29:12;7.43;;;1.50;;
2299;SDS011;1158;48.750;9.078;2023-05-10T13:31:38;2.53;;;1.10;;
2299;SDS011;1158;48.750;9.078;2023-05-10T13:34:06;4.43;;;1.43;;
2299;SDS011;1158;48.750;9.078;2023-05-10T13:36:33;2.53;;;1.27;;
2299;SDS011;1158;48.750;9.078;2023-05-10T13:39:00;5.70;;;1.63;;
2299;SDS011;1158;48.750;9.078;2023-05-10T13:41:28;2.60;;;1.30;;
2299;SDS011;1158;48.750;9.078;2023-05-10T13:43:55;2.17;;;1.10;;
2299;SDS011;1158;48.750;9.078;2023-05-10T13:46:21;2.80;;;1.30;;
2299;SDS011;1158;48.750;9.078;2023-05-10T13:48:48;2.57;;;1.23;;
2299;SDS011;1158;48.750;9.078;2023-05-10T13:51:16;4.33;;;1.60;;
2299;SDS011;1158;48.750;9.078;2023-05-10T13:53:42;1.57;;;1.00;;
2299;SDS011;1158;48.750;9.078;2023-05-10T13:56:09;2.40;;;1.20;;
2299;SDS011;1158;48.750;9.078;2023-05-10T13:58:36;7.20;;;1.40;;
2299;SDS011;1158;48.750;9.078;2023-05-10T14:01:03;2.23;;;1.33;;
2299;SDS011;1158;48.750;9.078;2023-05-10T14:03:30;4.30;;;1.20;;
2299;SDS011;1158;48.750;9.078;2023-05-10T14:05:57;3.40;;;1.20;;
2299;SDS011;1158;48.750;9.078;2023-05-10T14:08:25;4.13;;;1.37;;
2299;SDS011;1158;48.750;9.078;2023-05-10T14:10:53;3.60;;;1.10;;
2299;SDS011;1158;48.750;9.078;2023-05-10T14:13:21;2.10;;;1.30;;
2299;SDS011;1158;48.750;9.078;2023-05-10T14:15:47;4.03;;;1.00;;
2299;SDS011;1158;48.750;9.078;2023-05-10T14:18:14;2.97;;;1.03;;
2299;SDS011;1158;48.750;9.078;2023-05-10T14:20:41;3.80;;;1.20;;
2299;SDS011;1158;48.750;9.078;2023-05-10T14:23:07;2.40;;;1.10;;
2299;SDS011;1158;48.750;9.078;2023-05-10T14:25:36;5.67;;;1.50;;
2299;SDS011;1158;48.750;9.078;2023-05-10T14:28:03;2.67;;;1.10;;
2299;SDS011;1158;48.750;9.078;2023-05-10T14:30:31;5.20;;;1.13;;
2299;SDS011;1158;48.750;9.078;2023-05-10T14:32:59;5.60;;;1.30;;
2299;SDS011;1158;48.750;9.078;2023-05-10T14:35:26;4.73;;;1.30;;
2299;SDS011;1158;48.750;9.078;2023-05-10T14:37:52;4.70;;;1.20;;
2299;SDS011;1158;48.750;9.078;2023-05-10T14:40:20;2.67;;;1.10;;
2299;SDS011;1158;48.750;9.078;2023-05-10T14:42:48;7.97;;;2.13;;
2299;SDS011;1158;48.750;9.078;2023-05-10T14:45:14;4.70;;;1.70;;
2299;SDS011;1158;48.750;9.078;2023-05-10T14:47:41;2.23;;;0.90;;
2299;SDS011;1158;48.750;9.078;2023-05-10T14:50:08;3.63;;;0.90;;
2299;SDS011;1158;48.750;9.078;2023-05-10T14:52:35;2.17;;;1.03;;
2299;SDS011;1158;48.750;9.078;2023-05-10T14:55:01;2.43;;;1.30;;
2299;SDS011;1158;48.750;9.078;2023-05-10T14:57:28;3.70;;;1.03;;
2299;SDS011;1158;48.750;9.078;2023-05-10T14:59:57;2.27;;;0.97;;
2299;SDS011;1158;48.750;9.078;2023-05-10T15:02:24;4.73;;;1.20;;
2299;SDS011;1158;48.750;9.078;2023-05-10T15:04:51;4.43;;;1.33;;
2299;SDS011;1158;48.750;9.078;2023-05-10T15:07:17;2.47;;;1.10;;
2299;SDS011;1158;48.750;9.078;2023-05-10T15:09:44;4.67;;;1.23;;
2299;SDS011;1158;48.750;9.078;2023-05-10T15:12:11;1.80;;;1.03;;
2299;SDS011;1158;48.750;9.078;2023-05-10T15:14:37;3.70;;;1.63;;
2299;SDS011;1158;48.750;9.078;2023-05-10T15:17:06;2.83;;;1.13;;
2299;SDS011;1158;48.750;9.078;2023-05-10T15:19:33;4.27;;;1.20;;
2299;SDS011;1158;48.750;9.078;2023-05-10T15:22:00;1.70;;;1.10;;
2299;SDS011;1158;48.750;9.078;2023-05-10T15:24:26;4.03;;;1.50;;
2299;SDS011;1158;48.750;9.078;2023-05-10T15:26:53;2.73;;;1.47;;
2299;SDS011;1158;48.750;9.078;2023-05-10T15:29:20;3.00;;;1.30;;